Darstellungsparameter: Aktuell verwendete Einstellungen:
Skalierung der Graphiken ... ?
xyx+y,   Skalierungsfaktor:      Skalierung: Modus: x, Faktor: 1
Darstellungszeitraum ... ?
Vom - - bis: - -   Zeitraum: 21.05.2020 - 22.05.2020
Min/Max/Avg-Anzeige ... ?
Zeige MMA aktuell
Zeige MMA Monat
Zeige MMA alles
Zeige --A aktuell
Zeige --A Monat
Zeige --A alles
Keine MMA-Anzeige
MMA:
Average (ber die Originaldaten)
MMA-Basis: 21.05.2020 - 22.05.2020
Quicknavigation für Darstellung... ?
Tage:      1T, 2T, 3T, 5T -1T -2T -3T -5T +1T +2T +3T +5T
Wochen: 1W, 2W, 3W -1W -2W -3W +1W +2W +3W
Monate: 1M, 3M, 6M -1M -3M -6M +1M +3M +6M
Jahre:    1J, 3J, 5J, 10J -1J -3J -5J -10J +1J +3J +5J +10J
Nutze für die Darstellung ... ?
Originaldaten oder Mittelwerte auf ...
Stundenbasis Tagesbasis Wochenbasis
Monatsbasis Jahresbasis      Datenbasis: Original-Daten
Darstellen als:
Statistik (Auto) Statistik J:M      Darstellung:
Zur Graphik,    zurück zur Übersicht aller Sensoren.
 
Tabellarische Datenbersicht: ?
 
Sensor: Nr:Datum:Temp:Abs-Feuchte:Windchill:Wind:
Aussen-T/F 1 21-05-2020 00:00:00 14.8 C 10.13 g/m*3 14.8 C 0 km/h
2 21-05-2020 00:05:00 14.7 C 10.07 g/m*3 14.7 C 0 km/h
3 21-05-2020 00:10:00 14.7 C 10.07 g/m*3 14.7 C 3.2 km/h
4 21-05-2020 00:15:00 14.6 C 10.01 g/m*3 14.6 C 0 km/h
5 21-05-2020 00:20:00 14.5 C 10.07 g/m*3 14.5 C 1.6 km/h
6 21-05-2020 00:25:00 14.4 C 9.89 g/m*3 14.4 C 3.2 km/h
7 21-05-2020 00:30:00 14.4 C 9.89 g/m*3 14.4 C 1.6 km/h
8 21-05-2020 00:35:00 14.4 C 9.89 g/m*3 14.4 C 3.2 km/h
9 21-05-2020 00:40:00 14.4 C 9.89 g/m*3 14.4 C 4.8 km/h
10 21-05-2020 00:45:00 14.5 C 9.95 g/m*3 14.5 C 0 km/h
11 21-05-2020 00:50:00 14.6 C 10.01 g/m*3 14.6 C 4.8 km/h
12 21-05-2020 00:55:00 14.6 C 9.89 g/m*3 14.6 C 0 km/h
13 21-05-2020 01:00:00 14.6 C 9.89 g/m*3 14.6 C 0 km/h
14 21-05-2020 01:05:00 14.6 C 9.89 g/m*3 14.6 C 0 km/h
15 21-05-2020 01:10:00 14.7 C 9.95 g/m*3 14.7 C 4.8 km/h
16 21-05-2020 01:15:00 14.9 C 10.07 g/m*3 14.9 C 4.8 km/h
17 21-05-2020 01:20:00 14.9 C 9.94 g/m*3 14.9 C 4.8 km/h
18 21-05-2020 01:25:00 15 C 10 g/m*3 15 C 1.6 km/h
19 21-05-2020 01:30:00 14.9 C 9.94 g/m*3 14.9 C 0 km/h
20 21-05-2020 01:35:00 14.8 C 9.88 g/m*3 14.8 C 1.6 km/h
21 21-05-2020 01:40:00 14.5 C 9.83 g/m*3 14.5 C 4.8 km/h
22 21-05-2020 01:45:00 14.3 C 9.83 g/m*3 14.3 C 3.2 km/h
23 21-05-2020 01:50:00 14.1 C 9.71 g/m*3 14.1 C 3.2 km/h
24 21-05-2020 01:55:00 13.9 C 9.71 g/m*3 13.9 C 3.2 km/h
25 21-05-2020 02:00:00 13.7 C 9.71 g/m*3 13.7 C 3.2 km/h
Sensor: Nr:Datum:Temp:Abs-Feuchte:Windchill:Wind:
Aussen-T/F 26 21-05-2020 02:05:00 13.6 C 9.65 g/m*3 13.6 C 3.2 km/h
27 21-05-2020 02:10:00 13.4 C 9.65 g/m*3 13.4 C 4.8 km/h
28 21-05-2020 02:15:00 13.3 C 9.59 g/m*3 13.3 C 3.2 km/h
29 21-05-2020 02:20:00 13.3 C 9.7 g/m*3 13.3 C 3.2 km/h
30 21-05-2020 02:25:00 13.2 C 9.64 g/m*3 13.2 C 3.2 km/h
31 21-05-2020 02:30:00 13.1 C 9.59 g/m*3 13.1 C 3.2 km/h
32 21-05-2020 02:35:00 13 C 9.64 g/m*3 13 C 3.2 km/h
33 21-05-2020 02:40:00 12.9 C 9.58 g/m*3 12.9 C 4.8 km/h
34 21-05-2020 02:45:00 12.9 C 9.58 g/m*3 12.9 C 4.8 km/h
35 21-05-2020 02:50:00 12.8 C 9.63 g/m*3 12.8 C 6.4 km/h
36 21-05-2020 02:55:00 12.8 C 9.63 g/m*3 12.8 C 4.8 km/h
37 21-05-2020 03:00:00 12.7 C 9.57 g/m*3 12.7 C 4.8 km/h
38 21-05-2020 03:05:00 12.7 C 9.57 g/m*3 12.7 C 4.8 km/h
39 21-05-2020 03:10:00 12.7 C 9.57 g/m*3 12.7 C 4.8 km/h
40 21-05-2020 03:15:00 12.6 C 9.62 g/m*3 12.6 C 6.4 km/h
41 21-05-2020 03:20:00 12.6 C 9.62 g/m*3 12.6 C 4.8 km/h
42 21-05-2020 03:25:00 12.5 C 9.57 g/m*3 12.5 C 3.2 km/h
43 21-05-2020 03:30:00 12.4 C 9.51 g/m*3 12.4 C 4.8 km/h
44 21-05-2020 03:35:00 12.4 C 9.51 g/m*3 12.4 C 1.6 km/h
45 21-05-2020 03:40:00 12.3 C 9.45 g/m*3 12.3 C 0 km/h
46 21-05-2020 03:45:00 12.2 C 9.39 g/m*3 12.2 C 0 km/h
47 21-05-2020 03:50:00 12.1 C 9.33 g/m*3 12.1 C 0 km/h
48 21-05-2020 03:55:00 12 C 9.38 g/m*3 12 C 0 km/h
49 21-05-2020 04:00:00 11.9 C 9.32 g/m*3 11.9 C 0 km/h
50 21-05-2020 04:05:00 11.8 C 9.26 g/m*3 11.8 C 0 km/h
Sensor: Nr:Datum:Temp:Abs-Feuchte:Windchill:Wind:
Aussen-T/F 51 21-05-2020 04:10:00 11.8 C 9.37 g/m*3 11.8 C 0 km/h
52 21-05-2020 04:15:00 11.7 C 9.2 g/m*3 11.7 C 0 km/h
53 21-05-2020 04:20:00 11.6 C 9.25 g/m*3 11.6 C 3.2 km/h
54 21-05-2020 04:25:00 11.4 C 9.14 g/m*3 11.4 C 0 km/h
55 21-05-2020 04:30:00 11.3 C 9.08 g/m*3 11.3 C 0 km/h
56 21-05-2020 04:35:00 11.2 C 9.02 g/m*3 11.2 C 0 km/h
57 21-05-2020 04:40:00 11.2 C 9.12 g/m*3 11.2 C 0 km/h
58 21-05-2020 04:45:00 11.1 C 9.07 g/m*3 11.1 C 0 km/h
59 21-05-2020 04:50:00 11.1 C 9.07 g/m*3 11.1 C 0 km/h
60 21-05-2020 04:55:00 10.9 C 8.95 g/m*3 10.9 C 0 km/h
61 21-05-2020 05:00:00 10.9 C 8.95 g/m*3 10.9 C 0 km/h
62 21-05-2020 05:05:00 10.8 C 8.99 g/m*3 10.8 C 0 km/h
63 21-05-2020 05:10:00 10.7 C 8.94 g/m*3 10.7 C 0 km/h
64 21-05-2020 05:15:00 10.7 C 8.94 g/m*3 10.7 C 0 km/h
65 21-05-2020 05:20:00 10.7 C 8.94 g/m*3 10.7 C 0 km/h
66 21-05-2020 05:25:00 10.6 C 8.88 g/m*3 10.6 C 0 km/h
67 21-05-2020 05:30:00 10.6 C 8.98 g/m*3 10.6 C 0 km/h
68 21-05-2020 05:35:00 10.5 C 8.92 g/m*3 10.5 C 0 km/h
69 21-05-2020 05:40:00 10.4 C 8.87 g/m*3 10.4 C 0 km/h
70 21-05-2020 05:45:00 10.4 C 8.87 g/m*3 10.4 C 0 km/h
71 21-05-2020 05:50:00 10.3 C 8.81 g/m*3 10.3 C 0 km/h
72 21-05-2020 05:55:00 10.3 C 8.81 g/m*3 10.3 C 0 km/h
73 21-05-2020 06:00:00 10.3 C 8.81 g/m*3 10.3 C 0 km/h
74 21-05-2020 06:05:00 10.3 C 8.91 g/m*3 10.3 C 0 km/h
75 21-05-2020 06:10:00 10.3 C 8.91 g/m*3 10.3 C 0 km/h
Sensor: Nr:Datum:Temp:Abs-Feuchte:Windchill:Wind:
Aussen-T/F 76 21-05-2020 06:15:00 10.2 C 8.85 g/m*3 10.2 C 0 km/h
77 21-05-2020 06:20:00 10.2 C 8.85 g/m*3 10.2 C 0 km/h
78 21-05-2020 06:25:00 10.2 C 8.85 g/m*3 10.2 C 0 km/h
79 21-05-2020 06:30:00 10.2 C 8.85 g/m*3 10.2 C 0 km/h
80 21-05-2020 06:35:00 10.2 C 8.85 g/m*3 10.2 C 0 km/h
81 21-05-2020 06:40:00 10.3 C 8.91 g/m*3 10.3 C 0 km/h
82 21-05-2020 06:45:00 10.3 C 8.91 g/m*3 10.3 C 0 km/h
83 21-05-2020 06:50:00 10.3 C 8.91 g/m*3 10.3 C 0 km/h
84 21-05-2020 06:55:00 10.3 C 8.91 g/m*3 10.3 C 0 km/h
85 21-05-2020 07:00:00 10.3 C 9 g/m*3 10.3 C 0 km/h
86 21-05-2020 07:05:00 10.3 C 9 g/m*3 10.3 C 0 km/h
87 21-05-2020 07:10:00 10.4 C 9.06 g/m*3 10.4 C 0 km/h
88 21-05-2020 07:15:00 10.5 C 9.12 g/m*3 10.5 C 0 km/h
89 21-05-2020 07:20:00 10.6 C 9.17 g/m*3 10.6 C 0 km/h
90 21-05-2020 07:25:00 10.7 C 9.23 g/m*3 10.7 C 0 km/h
91 21-05-2020 07:30:00 10.7 C 9.23 g/m*3 10.7 C 0 km/h
92 21-05-2020 07:35:00 10.8 C 9.29 g/m*3 10.8 C 0 km/h
93 21-05-2020 07:40:00 10.8 C 9.29 g/m*3 10.8 C 0 km/h
94 21-05-2020 07:45:00 10.9 C 9.35 g/m*3 10.9 C 0 km/h
95 21-05-2020 07:50:00 11 C 9.51 g/m*3 11 C 0 km/h
96 21-05-2020 07:55:00 11.1 C 9.57 g/m*3 11.1 C 0 km/h
97 21-05-2020 08:00:00 11.2 C 9.63 g/m*3 11.2 C 0 km/h
98 21-05-2020 08:05:00 11.3 C 9.69 g/m*3 11.3 C 0 km/h
99 21-05-2020 08:10:00 11.4 C 9.75 g/m*3 11.4 C 0 km/h
100 21-05-2020 08:15:00 11.4 C 9.75 g/m*3 11.4 C 0 km/h
Sensor: Nr:Datum:Temp:Abs-Feuchte:Windchill:Wind:
Aussen-T/F 101 21-05-2020 08:20:00 11.6 C 9.87 g/m*3 11.6 C 0 km/h
102 21-05-2020 08:25:00 11.7 C 9.94 g/m*3 11.7 C 0 km/h
103 21-05-2020 08:30:00 11.8 C 10 g/m*3 11.8 C 0 km/h
104 21-05-2020 08:35:00 11.9 C 10.06 g/m*3 11.9 C 0 km/h
105 21-05-2020 08:40:00 12.1 C 10.19 g/m*3 12.1 C 0 km/h
106 21-05-2020 08:45:00 12.2 C 10.25 g/m*3 12.2 C 1.6 km/h
107 21-05-2020 08:50:00 12.3 C 10.32 g/m*3 12.3 C 1.6 km/h
108 21-05-2020 08:55:00 12.5 C 10.44 g/m*3 12.5 C 1.6 km/h
109 21-05-2020 09:00:00 12.7 C 10.58 g/m*3 12.7 C 0 km/h
110 21-05-2020 09:05:00 12.9 C 10.71 g/m*3 12.9 C 1.6 km/h
111 21-05-2020 09:10:00 13.1 C 10.73 g/m*3 13.1 C 0 km/h
112 21-05-2020 09:15:00 13.3 C 10.86 g/m*3 13.3 C 1.6 km/h
113 21-05-2020 09:20:00 13.6 C 11.06 g/m*3 13.6 C 0 km/h
114 21-05-2020 09:25:00 13.8 C 11.08 g/m*3 13.8 C 0 km/h
115 21-05-2020 09:30:00 14 C 11.22 g/m*3 14 C 1.6 km/h
116 21-05-2020 09:35:00 14.2 C 11.11 g/m*3 14.2 C 1.6 km/h
117 21-05-2020 09:40:00 14.4 C 11.25 g/m*3 14.4 C 0 km/h
118 21-05-2020 09:45:00 14.7 C 11.33 g/m*3 14.7 C 0 km/h
119 21-05-2020 09:50:00 14.9 C 11.34 g/m*3 14.9 C 0 km/h
120 21-05-2020 09:55:00 15.1 C 11.35 g/m*3 15.1 C 1.6 km/h
121 21-05-2020 10:00:00 15.3 C 11.36 g/m*3 15.3 C 0 km/h
122 21-05-2020 10:05:00 15.7 C 11.51 g/m*3 15.7 C 0 km/h
123 21-05-2020 10:10:00 16 C 11.58 g/m*3 16 C 0 km/h
124 21-05-2020 10:15:00 16.3 C 11.65 g/m*3 16.3 C 1.6 km/h
125 21-05-2020 10:20:00 16.7 C 11.94 g/m*3 16.7 C 1.6 km/h
Sensor: Nr:Datum:Temp:Abs-Feuchte:Windchill:Wind:
Aussen-T/F 126 21-05-2020 10:25:00 17.1 C 11.94 g/m*3 17.1 C 3.2 km/h
127 21-05-2020 10:30:00 17.8 C 11.84 g/m*3 17.8 C 6.4 km/h
128 21-05-2020 10:35:00 18.6 C 11.78 g/m*3 18.6 C 6.4 km/h
129 21-05-2020 10:40:00 19.3 C 11.61 g/m*3 19.3 C 9.7 km/h
130 21-05-2020 10:45:00 19.7 C 11.72 g/m*3 19.7 C 9.7 km/h
131 21-05-2020 10:50:00 19.9 C 11.68 g/m*3 19.9 C 8.1 km/h
132 21-05-2020 10:55:00 20.1 C 11.65 g/m*3 20.1 C 11.3 km/h
133 21-05-2020 11:00:00 20.3 C 11.78 g/m*3 20.3 C 9.7 km/h
134 21-05-2020 11:05:00 20.6 C 11.99 g/m*3 20.6 C 9.7 km/h
135 21-05-2020 11:10:00 20.8 C 12.13 g/m*3 20.8 C 9.7 km/h
136 21-05-2020 11:15:00 21 C 11.72 g/m*3 21 C 12.9 km/h
137 21-05-2020 11:20:00 21.2 C 11.49 g/m*3 21.2 C 12.9 km/h
138 21-05-2020 11:25:00 21.3 C 11.74 g/m*3 21.3 C 12.9 km/h
139 21-05-2020 11:30:00 21.4 C 11.62 g/m*3 21.4 C 9.7 km/h
140 21-05-2020 11:35:00 21.4 C 11.62 g/m*3 21.4 C 9.7 km/h
141 21-05-2020 11:40:00 21.5 C 11.5 g/m*3 21.5 C 11.3 km/h
142 21-05-2020 11:45:00 21.7 C 11.45 g/m*3 21.7 C 12.9 km/h
143 21-05-2020 11:50:00 21.8 C 11.51 g/m*3 21.8 C 11.3 km/h
144 21-05-2020 11:55:00 21.8 C 11.7 g/m*3 21.8 C 6.4 km/h
145 21-05-2020 12:00:00 21.7 C 11.64 g/m*3 21.7 C 8.1 km/h
146 21-05-2020 12:05:00 21.7 C 11.45 g/m*3 21.7 C 6.4 km/h
147 21-05-2020 12:10:00 21.8 C 11.51 g/m*3 21.8 C 8.1 km/h
148 21-05-2020 12:15:00 21.8 C 11.51 g/m*3 21.8 C 6.4 km/h
149 21-05-2020 12:20:00 22 C 11.84 g/m*3 22 C 9.7 km/h
150 21-05-2020 12:25:00 22.1 C 11.32 g/m*3 22.1 C 4.8 km/h
Sensor: Nr:Datum:Temp:Abs-Feuchte:Windchill:Wind:
Aussen-T/F 151 21-05-2020 12:30:00 22.1 C 11.32 g/m*3 22.1 C 9.7 km/h
152 21-05-2020 12:35:00 22.3 C 11.45 g/m*3 22.3 C 8.1 km/h
153 21-05-2020 12:40:00 22.4 C 11.32 g/m*3 22.4 C 6.4 km/h
154 21-05-2020 12:45:00 22.5 C 11.58 g/m*3 22.5 C 9.7 km/h
155 21-05-2020 12:50:00 22.7 C 11.52 g/m*3 22.7 C 11.3 km/h
156 21-05-2020 12:55:00 22.8 C 11.18 g/m*3 22.8 C 8.1 km/h
157 21-05-2020 13:00:00 22.8 C 10.97 g/m*3 22.8 C 12.9 km/h
158 21-05-2020 13:05:00 22.8 C 11.38 g/m*3 22.8 C 11.3 km/h
159 21-05-2020 13:10:00 22.9 C 11.44 g/m*3 22.9 C 12.9 km/h
160 21-05-2020 13:15:00 23.1 C 11.37 g/m*3 23.1 C 9.7 km/h
161 21-05-2020 13:20:00 23.1 C 11.78 g/m*3 23.1 C 6.4 km/h
162 21-05-2020 13:25:00 23.2 C 11.85 g/m*3 23.2 C 6.4 km/h
163 21-05-2020 13:30:00 23.3 C 11.29 g/m*3 23.3 C 4.8 km/h
164 21-05-2020 13:35:00 23.4 C 11.35 g/m*3 23.4 C 8.1 km/h
165 21-05-2020 13:40:00 23.6 C 11.48 g/m*3 23.6 C 6.4 km/h
166 21-05-2020 13:45:00 23.6 C 11.7 g/m*3 23.6 C 4.8 km/h
167 21-05-2020 13:50:00 23.5 C 11.42 g/m*3 23.5 C 4.8 km/h
168 21-05-2020 13:55:00 23.6 C 11.7 g/m*3 23.6 C 6.4 km/h
169 21-05-2020 14:00:00 23.7 C 11.76 g/m*3 23.7 C 6.4 km/h
170 21-05-2020 14:05:00 23.9 C 11.9 g/m*3 23.9 C 9.7 km/h
171 21-05-2020 14:10:00 24.1 C 11.82 g/m*3 24.1 C 6.4 km/h
172 21-05-2020 14:15:00 24.3 C 11.73 g/m*3 24.3 C 8.1 km/h
173 21-05-2020 14:20:00 24.4 C 11.57 g/m*3 24.4 C 9.7 km/h
174 21-05-2020 14:25:00 24.5 C 11.86 g/m*3 24.5 C 8.1 km/h
175 21-05-2020 14:30:00 24.8 C 12.06 g/m*3 24.8 C 8.1 km/h
Sensor: Nr:Datum:Temp:Abs-Feuchte:Windchill:Wind:
Aussen-T/F 176 21-05-2020 14:35:00 25.1 C 11.81 g/m*3 25.1 C 4.8 km/h
177 21-05-2020 14:40:00 25.2 C 11.64 g/m*3 25.2 C 4.8 km/h
178 21-05-2020 14:45:00 25.2 C 11.64 g/m*3 25.2 C 6.4 km/h
179 21-05-2020 14:50:00 25.1 C 11.57 g/m*3 25.1 C 8.1 km/h
180 21-05-2020 14:55:00 25.2 C 11.64 g/m*3 25.2 C 9.7 km/h
181 21-05-2020 15:00:00 25.5 C 11.6 g/m*3 25.5 C 4.8 km/h
182 21-05-2020 15:05:00 25.6 C 11.43 g/m*3 25.6 C 8.1 km/h
183 21-05-2020 15:10:00 25.7 C 11.97 g/m*3 25.7 C 4.8 km/h
184 21-05-2020 15:15:00 26.2 C 11.32 g/m*3 26.2 C 8.1 km/h
185 21-05-2020 15:20:00 26.6 C 11.58 g/m*3 26.6 C 6.4 km/h
186 21-05-2020 15:25:00 26.9 C 11.77 g/m*3 26.9 C 9.7 km/h
187 21-05-2020 15:30:00 27.1 C 11.9 g/m*3 27.1 C 6.4 km/h
188 21-05-2020 15:35:00 27.5 C 12.43 g/m*3 27.5 C 4.8 km/h
189 21-05-2020 15:40:00 27.7 C 11.77 g/m*3 27.7 C 8.1 km/h
190 21-05-2020 15:45:00 27.8 C 11.3 g/m*3 27.8 C 8.1 km/h
191 21-05-2020 15:50:00 27.8 C 11.3 g/m*3 27.8 C 9.7 km/h
192 21-05-2020 15:55:00 27.9 C 11.36 g/m*3 27.9 C 8.1 km/h
193 21-05-2020 16:00:00 27.9 C 11.09 g/m*3 27.9 C 9.7 km/h
194 21-05-2020 16:05:00 27.8 C 11.3 g/m*3 27.8 C 8.1 km/h
195 21-05-2020 16:10:00 27.8 C 11.57 g/m*3 27.8 C 11.3 km/h
196 21-05-2020 16:15:00 27.8 C 11.3 g/m*3 27.8 C 9.7 km/h
197 21-05-2020 16:20:00 27.8 C 12.1 g/m*3 27.8 C 8.1 km/h
198 21-05-2020 16:25:00 28.1 C 11.76 g/m*3 28.1 C 4.8 km/h
199 21-05-2020 16:30:00 28.1 C 11.21 g/m*3 28.1 C 6.4 km/h
200 21-05-2020 16:35:00 28.2 C 11.27 g/m*3 28.2 C 4.8 km/h
Sensor: Nr:Datum:Temp:Abs-Feuchte:Windchill:Wind:
Aussen-T/F 201 21-05-2020 16:40:00 28.4 C 10.84 g/m*3 28.4 C 9.7 km/h
202 21-05-2020 16:45:00 28.2 C 10.45 g/m*3 28.2 C 8.1 km/h
203 21-05-2020 16:50:00 28.3 C 11.06 g/m*3 28.3 C 8.1 km/h
204 21-05-2020 16:55:00 28.4 C 11.67 g/m*3 28.4 C 6.4 km/h
205 21-05-2020 17:00:00 28.5 C 10.9 g/m*3 28.5 C 8.1 km/h
206 21-05-2020 17:05:00 28.5 C 11.18 g/m*3 28.5 C 4.8 km/h
207 21-05-2020 17:10:00 28.9 C 10.86 g/m*3 28.9 C 4.8 km/h
208 21-05-2020 17:15:00 29.2 C 11.32 g/m*3 29.2 C 3.2 km/h
209 21-05-2020 17:20:00 28.9 C 10.57 g/m*3 28.9 C 9.7 km/h
210 21-05-2020 17:25:00 28.9 C 10.86 g/m*3 28.9 C 9.7 km/h
211 21-05-2020 17:30:00 29 C 10.91 g/m*3 29 C 8.1 km/h
212 21-05-2020 17:35:00 28.8 C 10.8 g/m*3 28.8 C 9.7 km/h
213 21-05-2020 17:40:00 28.7 C 11.02 g/m*3 28.7 C 6.4 km/h
214 21-05-2020 17:45:00 28.6 C 10.68 g/m*3 28.6 C 9.7 km/h
215 21-05-2020 17:50:00 28.3 C 10.51 g/m*3 28.3 C 11.3 km/h
216 21-05-2020 17:55:00 28.1 C 10.39 g/m*3 28.1 C 9.7 km/h
217 21-05-2020 18:00:00 27.9 C 10.82 g/m*3 27.9 C 6.4 km/h
218 21-05-2020 18:05:00 28.3 C 11.06 g/m*3 28.3 C 9.7 km/h
219 21-05-2020 18:10:00 28.9 C 10.86 g/m*3 28.9 C 8.1 km/h
220 21-05-2020 18:15:00 28.7 C 10.17 g/m*3 28.7 C 12.9 km/h
221 21-05-2020 18:20:00 28.1 C 10.12 g/m*3 28.1 C 9.7 km/h
222 21-05-2020 18:25:00 27.9 C 10.28 g/m*3 27.9 C 9.7 km/h
223 21-05-2020 18:30:00 27.8 C 10.22 g/m*3 27.8 C 9.7 km/h
224 21-05-2020 18:35:00 27.7 C 10.43 g/m*3 27.7 C 4.8 km/h
225 21-05-2020 18:40:00 27.5 C 10.58 g/m*3 27.5 C 4.8 km/h
Sensor: Nr:Datum:Temp:Abs-Feuchte:Windchill:Wind:
Aussen-T/F 226 21-05-2020 18:45:00 27.7 C 10.7 g/m*3 27.7 C 6.4 km/h
227 21-05-2020 18:50:00 28 C 11.42 g/m*3 28 C 6.4 km/h
228 21-05-2020 18:55:00 28.3 C 10.78 g/m*3 28.3 C 3.2 km/h
229 21-05-2020 19:00:00 28.4 C 10.84 g/m*3 28.4 C 6.4 km/h
230 21-05-2020 19:05:00 28.6 C 11.24 g/m*3 28.6 C 4.8 km/h
231 21-05-2020 19:10:00 28.5 C 10.9 g/m*3 28.5 C 4.8 km/h
232 21-05-2020 19:15:00 28.6 C 10.68 g/m*3 28.6 C 4.8 km/h
233 21-05-2020 19:20:00 28.4 C 11.12 g/m*3 28.4 C 6.4 km/h
234 21-05-2020 19:25:00 28.2 C 10.72 g/m*3 28.2 C 4.8 km/h
235 21-05-2020 19:30:00 27.9 C 10.82 g/m*3 27.9 C 4.8 km/h
236 21-05-2020 19:35:00 27.7 C 10.97 g/m*3 27.7 C 3.2 km/h
237 21-05-2020 19:40:00 27.7 C 11.5 g/m*3 27.7 C 3.2 km/h
238 21-05-2020 19:45:00 27.7 C 12.84 g/m*3 27.7 C 3.2 km/h
239 21-05-2020 19:50:00 27.7 C 12.84 g/m*3 27.7 C 3.2 km/h
240 21-05-2020 19:55:00 27.6 C 12.77 g/m*3 27.6 C 1.6 km/h
241 21-05-2020 20:00:00 27.6 C 12.77 g/m*3 27.6 C 1.6 km/h
242 21-05-2020 20:05:00 27.3 C 12.82 g/m*3 27.3 C 4.8 km/h
243 21-05-2020 20:10:00 26.9 C 12.54 g/m*3 26.9 C 4.8 km/h
244 21-05-2020 20:15:00 26.3 C 12.38 g/m*3 26.3 C 3.2 km/h
245 21-05-2020 20:20:00 25.7 C 12.45 g/m*3 25.7 C 4.8 km/h
246 21-05-2020 20:25:00 25.1 C 12.5 g/m*3 25.1 C 3.2 km/h
247 21-05-2020 20:30:00 24.7 C 12.45 g/m*3 24.7 C 0 km/h
248 21-05-2020 20:35:00 24.5 C 12.53 g/m*3 24.5 C 1.6 km/h
249 21-05-2020 20:40:00 24.3 C 12.61 g/m*3 24.3 C 1.6 km/h
250 21-05-2020 20:45:00 24.1 C 12.47 g/m*3 24.1 C 1.6 km/h
Sensor: Nr:Datum:Temp:Abs-Feuchte:Windchill:Wind:
Aussen-T/F 251 21-05-2020 20:50:00 23.8 C 12.48 g/m*3 23.8 C 1.6 km/h
252 21-05-2020 20:55:00 23.4 C 12.41 g/m*3 23.4 C 0 km/h
253 21-05-2020 21:00:00 23.1 C 12.4 g/m*3 23.1 C 1.6 km/h
254 21-05-2020 21:05:00 22.6 C 12.25 g/m*3 22.6 C 4.8 km/h
255 21-05-2020 21:10:00 22.2 C 12.17 g/m*3 22.2 C 3.2 km/h
256 21-05-2020 21:15:00 21.8 C 12.09 g/m*3 21.8 C 3.2 km/h
257 21-05-2020 21:20:00 21.5 C 12.07 g/m*3 21.5 C 6.4 km/h
258 21-05-2020 21:25:00 21.2 C 12.05 g/m*3 21.2 C 6.4 km/h
259 21-05-2020 21:30:00 20.9 C 12.02 g/m*3 20.9 C 4.8 km/h
260 21-05-2020 21:35:00 20.7 C 12.06 g/m*3 20.7 C 4.8 km/h
261 21-05-2020 21:40:00 20.4 C 11.85 g/m*3 20.4 C 4.8 km/h
262 21-05-2020 21:45:00 20.2 C 11.89 g/m*3 20.2 C 4.8 km/h
263 21-05-2020 21:50:00 20 C 11.92 g/m*3 20 C 8.1 km/h
264 21-05-2020 21:55:00 19.8 C 11.79 g/m*3 19.8 C 8.1 km/h
265 21-05-2020 22:00:00 19.7 C 11.89 g/m*3 19.7 C 6.4 km/h
266 21-05-2020 22:05:00 19.6 C 11.82 g/m*3 19.6 C 4.8 km/h
267 21-05-2020 22:10:00 19.5 C 11.92 g/m*3 19.5 C 4.8 km/h
268 21-05-2020 22:15:00 19.4 C 11.85 g/m*3 19.4 C 4.8 km/h
269 21-05-2020 22:20:00 19.3 C 11.94 g/m*3 19.3 C 4.8 km/h
270 21-05-2020 22:25:00 19.1 C 11.8 g/m*3 19.1 C 4.8 km/h
271 21-05-2020 22:30:00 18.9 C 11.83 g/m*3 18.9 C 4.8 km/h
272 21-05-2020 22:35:00 18.8 C 11.92 g/m*3 18.8 C 4.8 km/h
273 21-05-2020 22:40:00 18.8 C 11.92 g/m*3 18.8 C 4.8 km/h
274 21-05-2020 22:45:00 18.7 C 11.85 g/m*3 18.7 C 4.8 km/h
275 21-05-2020 22:50:00 18.7 C 11.85 g/m*3 18.7 C 8.1 km/h
Sensor: Nr:Datum:Temp:Abs-Feuchte:Windchill:Wind:
Aussen-T/F 276 21-05-2020 22:55:00 18.7 C 11.85 g/m*3 18.7 C 3.2 km/h
277 21-05-2020 23:00:00 18.7 C 11.69 g/m*3 18.7 C 6.4 km/h
278 21-05-2020 23:05:00 18.8 C 11.76 g/m*3 18.8 C 3.2 km/h
279 21-05-2020 23:10:00 18.9 C 11.83 g/m*3 18.9 C 3.2 km/h
280 21-05-2020 23:15:00 18.9 C 11.83 g/m*3 18.9 C 0 km/h
281 21-05-2020 23:20:00 18.9 C 11.83 g/m*3 18.9 C 1.6 km/h
282 21-05-2020 23:25:00 18.9 C 11.83 g/m*3 18.9 C 3.2 km/h
283 21-05-2020 23:30:00 18.8 C 11.76 g/m*3 18.8 C 3.2 km/h
284 21-05-2020 23:35:00 18.7 C 11.69 g/m*3 18.7 C 3.2 km/h
285 21-05-2020 23:40:00 18.6 C 11.62 g/m*3 18.6 C 1.6 km/h
286 21-05-2020 23:45:00 18.4 C 11.64 g/m*3 18.4 C 3.2 km/h
287 21-05-2020 23:50:00 18.3 C 11.57 g/m*3 18.3 C 1.6 km/h
288 21-05-2020 23:55:00 18.2 C 11.5 g/m*3 18.2 C 3.2 km/h
289 22-05-2020 00:00:00 18.1 C 11.59 g/m*3 18.1 C 3.2 km/h
290 22-05-2020 00:05:00 17.9 C 11.45 g/m*3 17.9 C 3.2 km/h
291 22-05-2020 00:10:00 17.9 C 11.45 g/m*3 17.9 C 3.2 km/h
292 22-05-2020 00:15:00 17.8 C 11.38 g/m*3 17.8 C 0 km/h
293 22-05-2020 00:20:00 17.7 C 11.47 g/m*3 17.7 C 0 km/h
294 22-05-2020 00:25:00 17.6 C 11.4 g/m*3 17.6 C 1.6 km/h
295 22-05-2020 00:30:00 17.5 C 11.33 g/m*3 17.5 C 0 km/h
296 22-05-2020 00:35:00 17.4 C 11.26 g/m*3 17.4 C 1.6 km/h
297 22-05-2020 00:40:00 17.4 C 11.41 g/m*3 17.4 C 1.6 km/h
298 22-05-2020 00:45:00 17.3 C 11.34 g/m*3 17.3 C 0 km/h
299 22-05-2020 00:50:00 17.2 C 11.28 g/m*3 17.2 C 0 km/h
300 22-05-2020 00:55:00 16.9 C 11.08 g/m*3 16.9 C 0 km/h
Sensor: Nr:Datum:Temp:Abs-Feuchte:Windchill:Wind:
Aussen-T/F 301 22-05-2020 01:00:00 16.8 C 11.15 g/m*3 16.8 C 0 km/h
302 22-05-2020 01:05:00 16.7 C 11.08 g/m*3 16.7 C 0 km/h
303 22-05-2020 01:10:00 16.6 C 11.16 g/m*3 16.6 C 0 km/h
304 22-05-2020 01:15:00 16.4 C 11.03 g/m*3 16.4 C 0 km/h
305 22-05-2020 01:20:00 16.3 C 10.96 g/m*3 16.3 C 0 km/h
306 22-05-2020 01:25:00 16.3 C 11.1 g/m*3 16.3 C 0 km/h
307 22-05-2020 01:30:00 16.2 C 11.03 g/m*3 16.2 C 0 km/h
308 22-05-2020 01:35:00 16.1 C 10.97 g/m*3 16.1 C 0 km/h
309 22-05-2020 01:40:00 15.9 C 10.97 g/m*3 15.9 C 0 km/h
310 22-05-2020 01:45:00 15.9 C 10.97 g/m*3 15.9 C 0 km/h
311 22-05-2020 01:50:00 15.8 C 10.9 g/m*3 15.8 C 0 km/h
312 22-05-2020 01:55:00 15.7 C 10.97 g/m*3 15.7 C 0 km/h
313 22-05-2020 02:00:00 15.6 C 11.04 g/m*3 15.6 C 0 km/h
314 22-05-2020 02:05:00 15.6 C 11.04 g/m*3 15.6 C 0 km/h
315 22-05-2020 02:10:00 15.5 C 10.97 g/m*3 15.5 C 0 km/h
316 22-05-2020 02:15:00 15.4 C 10.9 g/m*3 15.4 C 0 km/h
317 22-05-2020 02:20:00 15.3 C 10.97 g/m*3 15.3 C 0 km/h
318 22-05-2020 02:25:00 15.3 C 10.97 g/m*3 15.3 C 0 km/h
319 22-05-2020 02:30:00 15.3 C 11.1 g/m*3 15.3 C 0 km/h
320 22-05-2020 02:35:00 15.2 C 11.03 g/m*3 15.2 C 0 km/h
321 22-05-2020 02:40:00 15.2 C 11.03 g/m*3 15.2 C 0 km/h
322 22-05-2020 02:45:00 15.1 C 10.97 g/m*3 15.1 C 0 km/h
323 22-05-2020 02:50:00 15.1 C 10.97 g/m*3 15.1 C 0 km/h
324 22-05-2020 02:55:00 15 C 10.9 g/m*3 15 C 0 km/h
325 22-05-2020 03:00:00 14.9 C 10.83 g/m*3 14.9 C 0 km/h
Sensor: Nr:Datum:Temp:Abs-Feuchte:Windchill:Wind:
Aussen-T/F 326 22-05-2020 03:05:00 14.9 C 10.96 g/m*3 14.9 C 0 km/h
327 22-05-2020 03:10:00 14.8 C 10.89 g/m*3 14.8 C 0 km/h
328 22-05-2020 03:15:00 14.8 C 10.89 g/m*3 14.8 C 0 km/h
329 22-05-2020 03:20:00 14.8 C 10.89 g/m*3 14.8 C 0 km/h
330 22-05-2020 03:25:00 14.7 C 10.83 g/m*3 14.7 C 0 km/h
331 22-05-2020 03:30:00 14.6 C 10.76 g/m*3 14.6 C 0 km/h
332 22-05-2020 03:35:00 14.5 C 10.7 g/m*3 14.5 C 0 km/h
333 22-05-2020 03:40:00 14.4 C 10.63 g/m*3 14.4 C 0 km/h
334 22-05-2020 03:45:00 14.4 C 10.63 g/m*3 14.4 C 0 km/h
335 22-05-2020 03:50:00 14.3 C 10.57 g/m*3 14.3 C 0 km/h
336 22-05-2020 03:55:00 14.2 C 10.5 g/m*3 14.2 C 0 km/h
337 22-05-2020 04:00:00 14.1 C 10.56 g/m*3 14.1 C 0 km/h
338 22-05-2020 04:05:00 13.9 C 10.43 g/m*3 13.9 C 0 km/h
339 22-05-2020 04:10:00 13.8 C 10.37 g/m*3 13.8 C 0 km/h
340 22-05-2020 04:15:00 13.7 C 10.42 g/m*3 13.7 C 0 km/h
341 22-05-2020 04:20:00 13.7 C 10.54 g/m*3 13.7 C 0 km/h
342 22-05-2020 04:25:00 13.6 C 10.47 g/m*3 13.6 C 0 km/h
343 22-05-2020 04:30:00 13.6 C 10.47 g/m*3 13.6 C 0 km/h
344 22-05-2020 04:35:00 13.4 C 10.35 g/m*3 13.4 C 0 km/h
345 22-05-2020 04:40:00 13.4 C 10.35 g/m*3 13.4 C 0 km/h
346 22-05-2020 04:45:00 13.3 C 10.28 g/m*3 13.3 C 0 km/h
347 22-05-2020 04:50:00 13.3 C 10.4 g/m*3 13.3 C 0 km/h
348 22-05-2020 04:55:00 13.2 C 10.33 g/m*3 13.2 C 0 km/h
349 22-05-2020 05:00:00 13.2 C 10.33 g/m*3 13.2 C 0 km/h
350 22-05-2020 05:05:00 13.2 C 10.33 g/m*3 13.2 C 0 km/h
Sensor: Nr:Datum:Temp:Abs-Feuchte:Windchill:Wind:
Aussen-T/F 351 22-05-2020 05:10:00 13.1 C 10.38 g/m*3 13.1 C 0 km/h
352 22-05-2020 05:15:00 13.1 C 10.38 g/m*3 13.1 C 0 km/h
353 22-05-2020 05:20:00 13 C 10.32 g/m*3 13 C 0 km/h
354 22-05-2020 05:25:00 13 C 10.32 g/m*3 13 C 0 km/h
355 22-05-2020 05:30:00 12.9 C 10.26 g/m*3 12.9 C 0 km/h
356 22-05-2020 05:35:00 12.8 C 10.19 g/m*3 12.8 C 0 km/h
357 22-05-2020 05:40:00 12.8 C 10.19 g/m*3 12.8 C 0 km/h
358 22-05-2020 05:45:00 12.8 C 10.3 g/m*3 12.8 C 0 km/h
359 22-05-2020 05:50:00 12.7 C 10.24 g/m*3 12.7 C 0 km/h
360 22-05-2020 05:55:00 12.8 C 10.3 g/m*3 12.8 C 0 km/h
361 22-05-2020 06:00:00 12.8 C 10.3 g/m*3 12.8 C 0 km/h
362 22-05-2020 06:05:00 12.8 C 10.3 g/m*3 12.8 C 0 km/h
363 22-05-2020 06:10:00 12.8 C 10.42 g/m*3 12.8 C 0 km/h
364 22-05-2020 06:15:00 12.9 C 10.48 g/m*3 12.9 C 0 km/h
365 22-05-2020 06:20:00 13.1 C 10.61 g/m*3 13.1 C 0 km/h
366 22-05-2020 06:25:00 13.1 C 10.61 g/m*3 13.1 C 0 km/h
367 22-05-2020 06:30:00 13.2 C 10.68 g/m*3 13.2 C 0 km/h
368 22-05-2020 06:35:00 13.3 C 10.74 g/m*3 13.3 C 0 km/h
369 22-05-2020 06:40:00 13.5 C 10.99 g/m*3 13.5 C 0 km/h
370 22-05-2020 06:45:00 13.7 C 11.13 g/m*3 13.7 C 0 km/h
371 22-05-2020 06:50:00 13.8 C 11.2 g/m*3 13.8 C 0 km/h
372 22-05-2020 06:55:00 14 C 11.34 g/m*3 14 C 0 km/h
373 22-05-2020 07:00:00 14.2 C 11.48 g/m*3 14.2 C 0 km/h
374 22-05-2020 07:05:00 14.3 C 11.55 g/m*3 14.3 C 0 km/h
375 22-05-2020 07:10:00 14.4 C 11.5 g/m*3 14.4 C 0 km/h
Sensor: Nr:Datum:Temp:Abs-Feuchte:Windchill:Wind:
Aussen-T/F 376 22-05-2020 07:15:00 14.6 C 11.64 g/m*3 14.6 C 0 km/h
377 22-05-2020 07:20:00 14.7 C 11.71 g/m*3 14.7 C 0 km/h
378 22-05-2020 07:25:00 14.9 C 11.85 g/m*3 14.9 C 0 km/h
379 22-05-2020 07:30:00 15 C 11.93 g/m*3 15 C 0 km/h
380 22-05-2020 07:35:00 15.2 C 11.94 g/m*3 15.2 C 0 km/h
381 22-05-2020 07:40:00 15.3 C 12.01 g/m*3 15.3 C 0 km/h
382 22-05-2020 07:45:00 15.4 C 11.96 g/m*3 15.4 C 0 km/h
383 22-05-2020 07:50:00 15.6 C 12.1 g/m*3 15.6 C 0 km/h
384 22-05-2020 07:55:00 15.8 C 12.11 g/m*3 15.8 C 0 km/h
385 22-05-2020 08:00:00 16 C 12.26 g/m*3 16 C 0 km/h
386 22-05-2020 08:05:00 16.2 C 12.27 g/m*3 16.2 C 1.6 km/h
387 22-05-2020 08:10:00 16.4 C 12.28 g/m*3 16.4 C 0 km/h
388 22-05-2020 08:15:00 16.7 C 12.22 g/m*3 16.7 C 4.8 km/h
389 22-05-2020 08:20:00 17.1 C 12.37 g/m*3 17.1 C 4.8 km/h
390 22-05-2020 08:25:00 17.4 C 12.45 g/m*3 17.4 C 3.2 km/h
391 22-05-2020 08:30:00 17.7 C 12.67 g/m*3 17.7 C 6.4 km/h
392 22-05-2020 08:35:00 18.1 C 12.52 g/m*3 18.1 C 6.4 km/h
393 22-05-2020 08:40:00 18.4 C 12.58 g/m*3 18.4 C 4.8 km/h
394 22-05-2020 08:45:00 18.7 C 12.65 g/m*3 18.7 C 6.4 km/h
395 22-05-2020 08:50:00 18.9 C 12.8 g/m*3 18.9 C 1.6 km/h
396 22-05-2020 08:55:00 19.1 C 12.79 g/m*3 19.1 C 6.4 km/h
397 22-05-2020 09:00:00 19.3 C 12.77 g/m*3 19.3 C 8.1 km/h
398 22-05-2020 09:05:00 19.3 C 12.77 g/m*3 19.3 C 8.1 km/h
399 22-05-2020 09:10:00 19.4 C 12.68 g/m*3 19.4 C 8.1 km/h
400 22-05-2020 09:15:00 19.6 C 12.83 g/m*3 19.6 C 6.4 km/h
Sensor: Nr:Datum:Temp:Abs-Feuchte:Windchill:Wind:
Aussen-T/F 401 22-05-2020 09:20:00 19.8 C 12.98 g/m*3 19.8 C 8.1 km/h
402 22-05-2020 09:25:00 19.9 C 12.89 g/m*3 19.9 C 6.4 km/h
403 22-05-2020 09:30:00 20.1 C 12.86 g/m*3 20.1 C 8.1 km/h
404 22-05-2020 09:35:00 20.1 C 12.86 g/m*3 20.1 C 6.4 km/h
405 22-05-2020 09:40:00 20.2 C 13.11 g/m*3 20.2 C 4.8 km/h
406 22-05-2020 09:45:00 20.3 C 13.19 g/m*3 20.3 C 3.2 km/h
407 22-05-2020 09:50:00 20.4 C 13.27 g/m*3 20.4 C 3.2 km/h
408 22-05-2020 09:55:00 20.6 C 13.24 g/m*3 20.6 C 3.2 km/h
409 22-05-2020 10:00:00 20.7 C 13.32 g/m*3 20.7 C 1.6 km/h
410 22-05-2020 10:05:00 20.9 C 13.48 g/m*3 20.9 C 1.6 km/h
411 22-05-2020 10:10:00 21.1 C 13.45 g/m*3 21.1 C 0 km/h
412 22-05-2020 10:15:00 21.3 C 13.61 g/m*3 21.3 C 0 km/h
413 22-05-2020 10:20:00 21.5 C 13.58 g/m*3 21.5 C 0 km/h
414 22-05-2020 10:25:00 21.7 C 13.73 g/m*3 21.7 C 0 km/h
415 22-05-2020 10:30:00 21.8 C 13.62 g/m*3 21.8 C 0 km/h
416 22-05-2020 10:35:00 21.9 C 13.7 g/m*3 21.9 C 0 km/h
417 22-05-2020 10:40:00 21.9 C 13.7 g/m*3 21.9 C 1.6 km/h
418 22-05-2020 10:45:00 22.1 C 13.86 g/m*3 22.1 C 1.6 km/h
419 22-05-2020 10:50:00 22.3 C 13.82 g/m*3 22.3 C 4.8 km/h
420 22-05-2020 10:55:00 22.6 C 14.06 g/m*3 22.6 C 1.6 km/h
421 22-05-2020 11:00:00 22.8 C 14.02 g/m*3 22.8 C 4.8 km/h
422 22-05-2020 11:05:00 23 C 14.18 g/m*3 23 C 3.2 km/h
423 22-05-2020 11:10:00 23.2 C 13.93 g/m*3 23.2 C 3.2 km/h
424 22-05-2020 11:15:00 23.4 C 13.88 g/m*3 23.4 C 6.4 km/h
425 22-05-2020 11:20:00 23.5 C 13.96 g/m*3 23.5 C 8.1 km/h
Sensor: Nr:Datum:Temp:Abs-Feuchte:Windchill:Wind:
Aussen-T/F 426 22-05-2020 11:25:00 23.7 C 14.33 g/m*3 23.7 C 8.1 km/h
427 22-05-2020 11:30:00 23.8 C 13.77 g/m*3 23.8 C 11.3 km/h
428 22-05-2020 11:35:00 23.9 C 13.63 g/m*3 23.9 C 9.7 km/h
429 22-05-2020 11:40:00 24 C 13.71 g/m*3 24 C 9.7 km/h
430 22-05-2020 11:45:00 24.1 C 13.78 g/m*3 24.1 C 3.2 km/h
431 22-05-2020 11:50:00 24.3 C 13.72 g/m*3 24.3 C 6.4 km/h
432 22-05-2020 11:55:00 24.4 C 13.58 g/m*3 24.4 C 8.1 km/h
433 22-05-2020 12:00:00 24.4 C 13.35 g/m*3 24.4 C 9.7 km/h
434 22-05-2020 12:05:00 24.4 C 13.35 g/m*3 24.4 C 9.7 km/h
435 22-05-2020 12:10:00 24.5 C 13.65 g/m*3 24.5 C 9.7 km/h
436 22-05-2020 12:15:00 24.4 C 13.35 g/m*3 24.4 C 16.1 km/h
437 22-05-2020 12:20:00 24.4 C 13.8 g/m*3 24.4 C 3.2 km/h
438 22-05-2020 12:25:00 24.5 C 13.43 g/m*3 24.5 C 8.1 km/h
439 22-05-2020 12:30:00 24.6 C 13.73 g/m*3 24.6 C 6.4 km/h
440 22-05-2020 12:35:00 24.5 C 13.65 g/m*3 24.5 C 6.4 km/h
441 22-05-2020 12:40:00 24.6 C 13.73 g/m*3 24.6 C 4.8 km/h
442 22-05-2020 12:45:00 24.6 C 13.73 g/m*3 24.6 C 6.4 km/h
443 22-05-2020 12:50:00 24.6 C 14.18 g/m*3 24.6 C 4.8 km/h
444 22-05-2020 12:55:00 24.7 C 13.81 g/m*3 24.7 C 6.4 km/h
445 22-05-2020 13:00:00 24.7 C 14.49 g/m*3 24.7 C 1.6 km/h
446 22-05-2020 13:05:00 24.7 C 14.26 g/m*3 24.7 C 4.8 km/h
447 22-05-2020 13:10:00 24.7 C 14.03 g/m*3 24.7 C 3.2 km/h
448 22-05-2020 13:15:00 24.8 C 14.11 g/m*3 24.8 C 3.2 km/h
449 22-05-2020 13:20:00 24.9 C 13.96 g/m*3 24.9 C 11.3 km/h
450 22-05-2020 13:25:00 24.9 C 13.73 g/m*3 24.9 C 8.1 km/h
Sensor: Nr:Datum:Temp:Abs-Feuchte:Windchill:Wind:
Aussen-T/F 451 22-05-2020 13:30:00 25.1 C 15.28 g/m*3 25.1 C 1.6 km/h
452 22-05-2020 13:35:00 25.3 C 13.81 g/m*3 25.3 C 8.1 km/h
453 22-05-2020 13:40:00 25.4 C 13.89 g/m*3 25.4 C 8.1 km/h
454 22-05-2020 13:45:00 25.6 C 14.76 g/m*3 25.6 C 4.8 km/h
455 22-05-2020 13:50:00 25.8 C 13.96 g/m*3 25.8 C 9.7 km/h
456 22-05-2020 13:55:00 26 C 13.88 g/m*3 26 C 8.1 km/h
457 22-05-2020 14:00:00 26.1 C 14.44 g/m*3 26.1 C 11.3 km/h
458 22-05-2020 14:05:00 26.2 C 14.77 g/m*3 26.2 C 8.1 km/h
459 22-05-2020 14:10:00 26.2 C 14.28 g/m*3 26.2 C 4.8 km/h
460 22-05-2020 14:15:00 26.2 C 14.52 g/m*3 26.2 C 4.8 km/h
461 22-05-2020 14:20:00 26.3 C 14.36 g/m*3 26.3 C 4.8 km/h
462 22-05-2020 14:25:00 26.3 C 14.61 g/m*3 26.3 C 6.4 km/h
463 22-05-2020 14:30:00 26.4 C 14.19 g/m*3 26.4 C 6.4 km/h
464 22-05-2020 14:35:00 26.3 C 14.11 g/m*3 26.3 C 11.3 km/h
465 22-05-2020 14:40:00 26.2 C 14.03 g/m*3 26.2 C 11.3 km/h
466 22-05-2020 14:45:00 26.2 C 13.79 g/m*3 26.2 C 9.7 km/h
467 22-05-2020 14:50:00 26.3 C 13.86 g/m*3 26.3 C 4.8 km/h
468 22-05-2020 14:55:00 26.4 C 13.69 g/m*3 26.4 C 12.9 km/h
469 22-05-2020 15:00:00 26.3 C 13.62 g/m*3 26.3 C 11.3 km/h
470 22-05-2020 15:05:00 26.3 C 13.37 g/m*3 26.3 C 14.5 km/h
471 22-05-2020 15:10:00 26.5 C 13.52 g/m*3 26.5 C 9.7 km/h
472 22-05-2020 15:15:00 26.6 C 13.59 g/m*3 26.6 C 14.5 km/h
473 22-05-2020 15:20:00 26.8 C 13.74 g/m*3 26.8 C 9.7 km/h
474 22-05-2020 15:25:00 26.8 C 13.49 g/m*3 26.8 C 16.1 km/h
475 22-05-2020 15:30:00 26.6 C 13.34 g/m*3 26.6 C 12.9 km/h
Sensor: Nr:Datum:Temp:Abs-Feuchte:Windchill:Wind:
Aussen-T/F 476 22-05-2020 15:35:00 26.4 C 13.44 g/m*3 26.4 C 8.1 km/h
477 22-05-2020 15:40:00 26.2 C 13.54 g/m*3 26.2 C 14.5 km/h
478 22-05-2020 15:45:00 26.1 C 13.46 g/m*3 26.1 C 11.3 km/h
479 22-05-2020 15:50:00 25.9 C 13.32 g/m*3 25.9 C 9.7 km/h
480 22-05-2020 15:55:00 25.9 C 13.56 g/m*3 25.9 C 11.3 km/h
481 22-05-2020 16:00:00 25.9 C 13.56 g/m*3 25.9 C 9.7 km/h
482 22-05-2020 16:05:00 25.9 C 13.8 g/m*3 25.9 C 12.9 km/h
483 22-05-2020 16:10:00 25.9 C 13.32 g/m*3 25.9 C 12.9 km/h
484 22-05-2020 16:15:00 25.9 C 13.32 g/m*3 25.9 C 11.3 km/h
485 22-05-2020 16:20:00 25.9 C 13.32 g/m*3 25.9 C 17.7 km/h
486 22-05-2020 16:25:00 26.1 C 13.46 g/m*3 26.1 C 12.9 km/h
487 22-05-2020 16:30:00 26.2 C 13.79 g/m*3 26.2 C 12.9 km/h
488 22-05-2020 16:35:00 26.2 C 13.29 g/m*3 26.2 C 8.1 km/h
489 22-05-2020 16:40:00 26.2 C 13.79 g/m*3 26.2 C 12.9 km/h
490 22-05-2020 16:45:00 26.3 C 13.62 g/m*3 26.3 C 12.9 km/h
491 22-05-2020 16:50:00 26.3 C 13.86 g/m*3 26.3 C 12.9 km/h
492 22-05-2020 16:55:00 26.2 C 13.54 g/m*3 26.2 C 9.7 km/h
493 22-05-2020 17:00:00 26.2 C 13.79 g/m*3 26.2 C 12.9 km/h
494 22-05-2020 17:05:00 26.1 C 13.46 g/m*3 26.1 C 9.7 km/h
495 22-05-2020 17:10:00 26.1 C 13.46 g/m*3 26.1 C 11.3 km/h
496 22-05-2020 17:15:00 26.1 C 13.71 g/m*3 26.1 C 6.4 km/h
497 22-05-2020 17:20:00 26.2 C 13.79 g/m*3 26.2 C 6.4 km/h
498 22-05-2020 17:25:00 26.3 C 14.11 g/m*3 26.3 C 6.4 km/h
499 22-05-2020 17:30:00 26.4 C 14.44 g/m*3 26.4 C 4.8 km/h
500 22-05-2020 17:35:00 26.4 C 13.69 g/m*3 26.4 C 8.1 km/h
Sensor: Nr:Datum:Temp:Abs-Feuchte:Windchill:Wind:
Aussen-T/F 501 22-05-2020 17:40:00 26.4 C 14.19 g/m*3 26.4 C 3.2 km/h
502 22-05-2020 17:45:00 26.3 C 14.36 g/m*3 26.3 C 6.4 km/h
503 22-05-2020 17:50:00 26.2 C 14.03 g/m*3 26.2 C 4.8 km/h
504 22-05-2020 17:55:00 26.1 C 13.71 g/m*3 26.1 C 8.1 km/h
505 22-05-2020 18:00:00 25.9 C 13.8 g/m*3 25.9 C 9.7 km/h
506 22-05-2020 18:05:00 25.9 C 14.04 g/m*3 25.9 C 8.1 km/h
507 22-05-2020 18:10:00 25.8 C 14.2 g/m*3 25.8 C 9.7 km/h
508 22-05-2020 18:15:00 25.7 C 13.65 g/m*3 25.7 C 11.3 km/h
509 22-05-2020 18:20:00 25.6 C 14.52 g/m*3 25.6 C 11.3 km/h
510 22-05-2020 18:25:00 25.3 C 14.51 g/m*3 25.3 C 12.9 km/h
511 22-05-2020 18:30:00 25 C 14.73 g/m*3 25 C 4.8 km/h
512 22-05-2020 18:35:00 24.8 C 14.8 g/m*3 24.8 C 8.1 km/h
513 22-05-2020 18:40:00 24.7 C 14.94 g/m*3 24.7 C 3.2 km/h
514 22-05-2020 18:45:00 24.4 C 14.91 g/m*3 24.4 C 4.8 km/h
515 22-05-2020 18:50:00 24.2 C 14.74 g/m*3 24.2 C 3.2 km/h
516 22-05-2020 18:55:00 24.1 C 14.66 g/m*3 24.1 C 6.4 km/h
517 22-05-2020 19:00:00 24 C 14.36 g/m*3 24 C 9.7 km/h
518 22-05-2020 19:05:00 24 C 14.14 g/m*3 24 C 4.8 km/h
519 22-05-2020 19:10:00 24.1 C 14 g/m*3 24.1 C 8.1 km/h
520 22-05-2020 19:15:00 24.4 C 13.8 g/m*3 24.4 C 12.9 km/h
521 22-05-2020 19:20:00 24.6 C 14.18 g/m*3 24.6 C 6.4 km/h
522 22-05-2020 19:25:00 24.7 C 14.26 g/m*3 24.7 C 4.8 km/h
523 22-05-2020 19:30:00 24.7 C 14.49 g/m*3 24.7 C 0 km/h
524 22-05-2020 19:35:00 24.6 C 14.18 g/m*3 24.6 C 4.8 km/h
525 22-05-2020 19:40:00 24.4 C 14.47 g/m*3 24.4 C 11.3 km/h
Sensor: Nr:Datum:Temp:Abs-Feuchte:Windchill:Wind:
Aussen-T/F 526 22-05-2020 19:45:00 24.2 C 14.08 g/m*3 24.2 C 11.3 km/h
527 22-05-2020 19:50:00 23.9 C 14.06 g/m*3 23.9 C 8.1 km/h
528 22-05-2020 19:55:00 23.7 C 13.9 g/m*3 23.7 C 9.7 km/h
529 22-05-2020 20:00:00 23.5 C 13.96 g/m*3 23.5 C 9.7 km/h
530 22-05-2020 20:05:00 23.2 C 14.14 g/m*3 23.2 C 8.1 km/h
531 22-05-2020 20:10:00 22.7 C 14.14 g/m*3 22.7 C 12.9 km/h
532 22-05-2020 20:15:00 22.2 C 13.94 g/m*3 22.2 C 22.5 km/h
533 22-05-2020 20:20:00 21.7 C 13.93 g/m*3 21.7 C 16.1 km/h
534 22-05-2020 20:25:00 21.2 C 13.71 g/m*3 21.2 C 14.5 km/h
535 22-05-2020 20:30:00 20.8 C 13.76 g/m*3 20.8 C 11.3 km/h
536 22-05-2020 20:35:00 20.5 C 13.7 g/m*3 20.5 C 12.9 km/h
537 22-05-2020 20:40:00 20.2 C 13.81 g/m*3 20.2 C 6.4 km/h
538 22-05-2020 20:45:00 19.9 C 13.57 g/m*3 19.9 C 12.9 km/h
539 22-05-2020 20:50:00 19.7 C 13.41 g/m*3 19.7 C 11.3 km/h
540 22-05-2020 20:55:00 19.5 C 13.59 g/m*3 19.5 C 19.3 km/h
541 22-05-2020 21:00:00 19.3 C 13.6 g/m*3 19.3 C 8.1 km/h
542 22-05-2020 21:05:00 19 C 13.53 g/m*3 19 C 9.7 km/h
543 22-05-2020 21:10:00 18.8 C 13.53 g/m*3 18.8 C 6.4 km/h
544 22-05-2020 21:15:00 18.6 C 13.69 g/m*3 18.6 C 1.6 km/h
545 22-05-2020 21:20:00 18.4 C 13.53 g/m*3 18.4 C 3.2 km/h
546 22-05-2020 21:25:00 18.3 C 13.6 g/m*3 18.3 C 4.8 km/h
547 22-05-2020 21:30:00 18.2 C 13.52 g/m*3 18.2 C 3.2 km/h
548 22-05-2020 21:35:00 18.1 C 13.6 g/m*3 18.1 C 0 km/h
549 22-05-2020 21:40:00 18 C 13.67 g/m*3 18 C 0 km/h
550 22-05-2020 21:45:00 17.9 C 13.59 g/m*3 17.9 C 0 km/h
Sensor: Nr:Datum:Temp:Abs-Feuchte:Windchill:Wind:
Aussen-T/F 551 22-05-2020 21:50:00 17.8 C 13.66 g/m*3 17.8 C 0 km/h
552 22-05-2020 21:55:00 17.8 C 13.66 g/m*3 17.8 C 0 km/h
553 22-05-2020 22:00:00 17.7 C 13.58 g/m*3 17.7 C 1.6 km/h
554 22-05-2020 22:05:00 17.7 C 13.73 g/m*3 17.7 C 0 km/h
555 22-05-2020 22:10:00 17.6 C 13.65 g/m*3 17.6 C 0 km/h
556 22-05-2020 22:15:00 17.6 C 13.8 g/m*3 17.6 C 0 km/h
557 22-05-2020 22:20:00 17.6 C 13.8 g/m*3 17.6 C 0 km/h
558 22-05-2020 22:25:00 17.6 C 13.8 g/m*3 17.6 C 3.2 km/h
559 22-05-2020 22:30:00 17.5 C 13.72 g/m*3 17.5 C 4.8 km/h
560 22-05-2020 22:35:00 17.4 C 13.78 g/m*3 17.4 C 4.8 km/h
561 22-05-2020 22:40:00 17.4 C 13.78 g/m*3 17.4 C 3.2 km/h
562 22-05-2020 22:45:00 17.3 C 13.7 g/m*3 17.3 C 0 km/h
563 22-05-2020 22:50:00 17.3 C 13.7 g/m*3 17.3 C 1.6 km/h
564 22-05-2020 22:55:00 17.3 C 13.7 g/m*3 17.3 C 3.2 km/h
565 22-05-2020 23:00:00 17.3 C 13.7 g/m*3 17.3 C 6.4 km/h
566 22-05-2020 23:05:00 17.2 C 13.62 g/m*3 17.2 C 4.8 km/h
567 22-05-2020 23:10:00 17.2 C 13.62 g/m*3 17.2 C 3.2 km/h
568 22-05-2020 23:15:00 17.2 C 13.62 g/m*3 17.2 C 1.6 km/h
569 22-05-2020 23:20:00 17.2 C 13.77 g/m*3 17.2 C 1.6 km/h
570 22-05-2020 23:25:00 17.1 C 13.68 g/m*3 17.1 C 3.2 km/h
571 22-05-2020 23:30:00 17.1 C 13.68 g/m*3 17.1 C 0 km/h
572 22-05-2020 23:35:00 17.1 C 13.68 g/m*3 17.1 C 0 km/h
573 22-05-2020 23:40:00 17.1 C 13.68 g/m*3 17.1 C 0 km/h
574 22-05-2020 23:45:00 16.9 C 13.52 g/m*3 16.9 C 4.8 km/h
575 22-05-2020 23:50:00 16.9 C 13.52 g/m*3 16.9 C 3.2 km/h
Sensor: Nr:Datum:Temp:Abs-Feuchte:Windchill:Wind:
Aussen-T/F 576 22-05-2020 23:55:00 16.8 C 13.44 g/m*3 16.8 C 0 km/h

Legende:
   Min
   Max


Maximal/Minimal-Werte vom 21.05.2020 - 22.05.2020

Sensor Min Max Avg
Temp
(Aussen-T/F)
10.2 °C
21-05-2020  06:15:00
29.2 °C
21-05-2020  17:15:00
19.5 °C
Abs-Feuchte
(Aussen-T/F)
8.81 g/m*3
21-05-2020  05:50:00
15.28 g/m*3
22-05-2020  13:30:00
11.75 g/m*3
Windchill
(Aussen-T/F)
10.2 C
21-05-2020  06:15:00
29.2 C
21-05-2020  17:15:00
19.46 C

Die Daten stammen von einer Davis Vantage Pro 2 Wetter-Station und werden unter Linux mit der Software wview2wettercgi und aufbereitet. Alle Angaben erfolgen ohne Gewähr für ihre Vollständigkeit oder Richtigkeit.
Kontakt: Rainer Krienke krienke@uni-koblenz.de . Meine Webseiten an der Uni Koblenz oder privat.
Version: $Revision: 0.78 $